Time;durP1;ratioP1;P1;durP2;ratioP2;P2;SDS_P1;SDS_P2;PMS_P1;PMS_P2;Temp;Humidity;BMP_temperature;BMP_pressure;BME280_temperature;BME280_humidity;BME280_pressure;Samples;Min_cycle;Max_cycle;Signal;HPM_P1;HPM_P2
2024/01/03 00:00:56;;;;;;;1.67;1.57;;;19.40;45.30;;;;;;4991487;28;20451;-75
2024/01/03 00:03:22;;;;;;;1.80;1.40;;;19.40;45.30;;;;;;4969724;28;20443;-74
2024/01/03 00:05:48;;;;;;;1.73;1.50;;;19.40;45.20;;;;;;4990141;28;20247;-74
2024/01/03 00:08:32;;;;;;;2.07;1.90;;;19.40;45.30;;;;;;4993187;28;20492;-71
2024/01/03 00:10:58;;;;;;;2.60;1.50;;;19.40;45.30;;;;;;4969166;28;20219;-74
2024/01/03 00:13:33;;;;;;;1.40;1.30;;;19.40;45.30;;;;;;4988361;28;20443;-72
2024/01/03 00:16:01;;;;;;;1.77;1.30;;;19.40;45.30;;;;;;4984528;28;20866;-70
2024/01/03 00:18:37;;;;;;;1.47;1.37;;;19.40;45.30;;;;;;4990255;28;20473;-71
2024/01/03 00:21:05;;;;;;;1.50;1.40;;;19.40;45.30;;;;;;4975162;28;20522;-73
2024/01/03 00:23:46;;;;;;;2.20;1.57;;;19.40;45.30;;;;;;4991337;28;20431;-73
2024/01/03 00:26:13;;;;;;;1.60;1.50;;;19.40;45.30;;;;;;4981312;28;20453;-73
2024/01/03 00:28:39;;;;;;;3.73;1.57;;;19.40;45.30;;;;;;4988352;28;20484;-72
2024/01/03 00:31:05;;;;;;;1.57;1.47;;;19.40;45.20;;;;;;4988648;28;20440;-73
2024/01/03 00:33:36;;;;;;;1.37;1.27;;;19.40;45.30;;;;;;4990404;28;20442;-70
2024/01/03 00:36:02;;;;;;;2.60;1.53;;;19.40;45.20;;;;;;4977092;28;20521;-72
2024/01/03 00:38:37;;;;;;;1.83;1.73;;;19.40;45.20;;;;;;5007308;28;20526;-72
2024/01/03 00:41:03;;;;;;;1.43;1.30;;;19.40;45.30;;;;;;4971403;28;21550;-72
2024/01/03 00:43:29;;;;;;;1.70;1.60;;;19.40;45.30;;;;;;4988955;28;21017;-71
2024/01/03 00:45:55;;;;;;;1.47;1.37;;;19.40;45.20;;;;;;4988919;28;20468;-71
2024/01/03 00:48:21;;;;;;;1.87;1.37;;;19.40;45.20;;;;;;4975493;28;20703;-74
2024/01/03 00:50:48;;;;;;;1.80;1.50;;;19.40;45.20;;;;;;4984026;28;20432;-74
2024/01/03 00:53:13;;;;;;;1.30;1.20;;;19.40;45.20;;;;;;4992606;28;20251;-75
2024/01/03 00:55:42;;;;;;;1.47;1.37;;;19.40;45.30;;;;;;4984789;28;20937;-75
2024/01/03 00:58:10;;;;;;;1.90;1.70;;;19.40;45.20;;;;;;4989632;28;20274;-75
2024/01/03 01:00:36;;;;;;;1.70;1.60;;;19.40;45.20;;;;;;4991334;28;20448;-75
2024/01/03 01:03:03;;;;;;;1.40;1.30;;;19.40;45.30;;;;;;4985033;28;20441;-75
2024/01/03 01:05:28;;;;;;;1.50;1.33;;;19.40;45.20;;;;;;4988610;28;20522;-75
2024/01/03 01:07:54;;;;;;;2.00;1.23;;;19.40;45.20;;;;;;4996377;28;20429;-74
2024/01/03 01:10:20;;;;;;;1.73;1.57;;;19.40;45.20;;;;;;4981994;28;20277;-74
2024/01/03 01:12:45;;;;;;;1.53;1.43;;;19.40;45.20;;;;;;4982477;28;20270;-71
2024/01/03 01:15:11;;;;;;;1.20;1.10;;;19.40;45.20;;;;;;4994051;28;20687;-69
2024/01/03 01:17:36;;;;;;;1.40;1.30;;;19.40;45.30;;;;;;4987294;28;20234;-68
2024/01/03 01:20:02;;;;;;;1.70;1.30;;;19.40;45.20;;;;;;4984292;28;20226;-68
2024/01/03 01:22:27;;;;;;;1.70;1.37;;;19.40;45.50;;;;;;4990375;28;20247;-70
2024/01/03 01:24:53;;;;;;;1.30;1.20;;;19.40;45.20;;;;;;4998190;28;20266;-68
2024/01/03 01:27:19;;;;;;;1.53;1.30;;;19.40;45.20;;;;;;4997817;28;20265;-68
2024/01/03 01:29:44;;;;;;;1.50;1.40;;;19.40;45.20;;;;;;4994208;28;20592;-69
2024/01/03 01:32:10;;;;;;;2.03;1.20;;;19.40;45.20;;;;;;4994414;28;20226;-69
2024/01/03 01:34:35;;;;;;;1.30;1.20;;;19.40;45.20;;;;;;4987017;28;20207;-71
2024/01/03 01:37:01;;;;;;;1.20;1.10;;;19.40;45.20;;;;;;4982389;28;20597;-70
2024/01/03 01:39:26;;;;;;;1.30;1.13;;;19.40;45.30;;;;;;4996371;28;20826;-69
2024/01/03 01:41:52;;;;;;;1.50;1.40;;;19.40;45.20;;;;;;4996388;28;20702;-72
2024/01/03 01:44:17;;;;;;;2.57;1.40;;;19.40;45.20;;;;;;4994374;28;20223;-72
2024/01/03 01:46:45;;;;;;;1.13;1.03;;;19.40;45.20;;;;;;4987400;28;20255;-70
2024/01/03 01:49:11;;;;;;;1.20;1.10;;;19.40;45.20;;;;;;4993463;28;20253;-72
2024/01/03 01:51:39;;;;;;;1.23;1.13;;;19.40;45.20;;;;;;4972024;28;20470;-70
2024/01/03 01:54:05;;;;;;;1.20;1.10;;;19.40;45.20;;;;;;4989315;28;20242;-71
2024/01/03 01:56:32;;;;;;;1.30;1.20;;;19.40;45.20;;;;;;4979934;28;20466;-72
2024/01/03 01:58:58;;;;;;;1.40;1.00;;;19.40;45.20;;;;;;4990849;28;20585;-73
2024/01/03 02:01:25;;;;;;;1.30;1.20;;;19.40;45.20;;;;;;4986526;28;20782;-73
2024/01/03 02:03:52;;;;;;;1.60;1.30;;;19.40;45.20;;;;;;4971393;28;20447;-72
2024/01/03 02:06:20;;;;;;;1.60;1.43;;;19.40;45.20;;;;;;4977174;28;20448;-73
2024/01/03 02:08:46;;;;;;;1.20;1.10;;;19.40;45.20;;;;;;4972925;28;21035;-73
2024/01/03 02:11:12;;;;;;;1.10;0.97;;;19.40;45.20;;;;;;4982021;28;20458;-72
2024/01/03 02:13:37;;;;;;;1.50;1.40;;;19.40;45.20;;;;;;4973250;28;20227;-70
2024/01/03 02:16:03;;;;;;;2.33;1.20;;;19.40;45.20;;;;;;4990329;28;20555;-72
2024/01/03 02:18:29;;;;;;;1.80;1.23;;;19.40;45.20;;;;;;4982477;28;20254;-70
2024/01/03 02:20:56;;;;;;;1.27;1.00;;;19.40;45.20;;;;;;4982555;28;20590;-71
2024/01/03 02:23:23;;;;;;;1.20;1.10;;;19.40;45.20;;;;;;4995342;28;20297;-72
2024/01/03 02:25:48;;;;;;;1.73;1.00;;;19.40;45.30;;;;;;4987076;28;20432;-74
2024/01/03 02:28:16;;;;;;;1.50;1.10;;;19.40;45.20;;;;;;4989938;28;20423;-74
2024/01/03 02:30:44;;;;;;;1.40;1.20;;;19.40;45.20;;;;;;4978554;28;20301;-74
2024/01/03 02:33:10;;;;;;;1.43;1.20;;;19.40;45.20;;;;;;4992460;28;20444;-73
2024/01/03 02:35:36;;;;;;;1.43;1.20;;;19.40;45.20;;;;;;4990581;28;20490;-75
2024/01/03 02:38:02;;;;;;;1.50;1.10;;;19.40;45.20;;;;;;4993976;28;20435;-74
2024/01/03 02:40:27;;;;;;;1.67;1.33;;;19.40;45.20;;;;;;4972351;28;20275;-74
2024/01/03 02:42:53;;;;;;;1.40;1.17;;;19.40;45.20;;;;;;4986867;28;20242;-75
2024/01/03 02:45:19;;;;;;;1.07;0.90;;;19.40;45.20;;;;;;4997652;28;20622;-74
2024/01/03 02:47:44;;;;;;;1.77;1.10;;;19.40;45.10;;;;;;4976758;28;20629;-75
2024/01/03 02:50:10;;;;;;;1.57;1.10;;;19.40;45.20;;;;;;4984448;28;20223;-74
2024/01/03 02:52:35;;;;;;;1.10;1.00;;;19.40;45.10;;;;;;4965522;28;20265;-71
2024/01/03 02:55:01;;;;;;;1.27;1.10;;;19.40;45.20;;;;;;4974646;28;20270;-72
2024/01/03 02:57:27;;;;;;;1.20;0.93;;;19.40;45.20;;;;;;4976761;28;20710;-70
2024/01/03 02:59:53;;;;;;;1.40;1.30;;;19.40;45.10;;;;;;4972047;28;20229;-69
2024/01/03 03:02:19;;;;;;;1.20;1.10;;;19.40;45.10;;;;;;4990610;28;20738;-71
2024/01/03 03:04:44;;;;;;;0.90;0.90;;;19.40;45.10;;;;;;4985881;28;20500;-70
2024/01/03 03:07:10;;;;;;;1.50;1.40;;;19.30;45.00;;;;;;4975840;28;20303;-71
2024/01/03 03:09:36;;;;;;;1.00;0.90;;;19.40;45.10;;;;;;4979734;28;20696;-69
2024/01/03 03:12:01;;;;;;;1.60;0.90;;;19.40;45.10;;;;;;4982271;28;20831;-70
2024/01/03 03:14:27;;;;;;;1.20;0.90;;;19.40;45.10;;;;;;4993498;28;20242;-70
2024/01/03 03:16:52;;;;;;;1.40;1.00;;;19.40;45.20;;;;;;4988925;28;20682;-69
2024/01/03 03:19:18;;;;;;;1.00;0.90;;;19.40;45.20;;;;;;4991547;28;20710;-69
2024/01/03 03:21:43;;;;;;;1.47;0.80;;;19.30;45.00;;;;;;4987060;28;20250;-69
2024/01/03 03:24:09;;;;;;;0.90;0.87;;;19.40;45.10;;;;;;4976711;28;20325;-68
2024/01/03 03:26:34;;;;;;;0.93;0.83;;;19.40;45.10;;;;;;4975079;28;20227;-68
2024/01/03 03:29:00;;;;;;;1.50;1.40;;;19.40;45.10;;;;;;4979667;28;20726;-68
2024/01/03 03:31:26;;;;;;;1.47;0.97;;;19.40;45.10;;;;;;4993835;28;20646;-68
2024/01/03 03:33:51;;;;;;;1.27;1.00;;;19.40;45.00;;;;;;4989880;28;20302;-69
2024/01/03 03:36:18;;;;;;;1.20;0.90;;;19.40;45.10;;;;;;4991505;28;20240;-69
2024/01/03 03:38:44;;;;;;;1.23;1.00;;;19.40;45.10;;;;;;4964955;28;20254;-69
2024/01/03 03:41:11;;;;;;;1.20;1.07;;;19.40;45.10;;;;;;4969215;28;20534;-69
2024/01/03 03:43:37;;;;;;;0.93;0.83;;;19.40;45.10;;;;;;4968089;28;20235;-67
2024/01/03 03:46:03;;;;;;;1.20;1.00;;;19.40;45.10;;;;;;4989736;28;20444;-70
2024/01/03 03:48:29;;;;;;;5.20;1.10;;;19.40;45.00;;;;;;4979641;28;20492;-68
2024/01/03 03:50:54;;;;;;;1.10;1.00;;;19.40;45.00;;;;;;4990386;28;20310;-69
2024/01/03 03:53:20;;;;;;;0.90;0.90;;;19.40;45.10;;;;;;4974406;28;20273;-68
2024/01/03 03:55:45;;;;;;;1.50;1.37;;;19.40;45.00;;;;;;4971359;28;20653;-68
2024/01/03 03:58:11;;;;;;;0.97;0.83;;;19.40;45.10;;;;;;4966300;28;20707;-68
2024/01/03 04:00:37;;;;;;;1.13;0.90;;;19.40;45.00;;;;;;4987465;28;20227;-68
2024/01/03 04:03:06;;;;;;;0.87;0.70;;;19.40;45.00;;;;;;4990702;28;20230;-69
2024/01/03 04:05:35;;;;;;;1.03;0.83;;;19.30;44.90;;;;;;4991569;28;20762;-69
2024/01/03 04:08:01;;;;;;;1.00;0.90;;;19.30;45.00;;;;;;4966516;28;20444;-70
2024/01/03 04:10:27;;;;;;;1.13;1.03;;;19.40;45.00;;;;;;4982878;28;20520;-68
2024/01/03 04:12:53;;;;;;;1.00;0.90;;;19.40;45.00;;;;;;4986106;28;20223;-67
2024/01/03 04:15:19;;;;;;;0.87;0.80;;;19.40;45.00;;;;;;5004138;28;20251;-68
2024/01/03 04:17:45;;;;;;;1.10;0.90;;;19.40;45.00;;;;;;4978088;28;20892;-68
2024/01/03 04:20:10;;;;;;;1.20;1.10;;;19.40;45.00;;;;;;4992913;28;20221;-69
2024/01/03 04:22:37;;;;;;;1.17;1.00;;;19.40;45.00;;;;;;4989278;28;20694;-68
2024/01/03 04:25:03;;;;;;;1.20;1.00;;;19.40;45.00;;;;;;4977490;28;20216;-69
2024/01/03 04:27:29;;;;;;;1.93;1.00;;;19.40;45.00;;;;;;4981012;28;20466;-68
2024/01/03 04:29:55;;;;;;;1.20;0.90;;;19.40;45.00;;;;;;4992033;28;20225;-70
2024/01/03 04:32:20;;;;;;;0.80;0.70;;;19.40;44.90;;;;;;4988573;28;20223;-72
2024/01/03 04:34:46;;;;;;;1.37;0.90;;;19.30;44.80;;;;;;4992796;28;20777;-72
2024/01/03 04:37:11;;;;;;;1.17;0.90;;;19.40;44.90;;;;;;4974653;28;20236;-72
2024/01/03 04:39:37;;;;;;;1.60;0.80;;;19.30;44.90;;;;;;4979909;28;20325;-71
2024/01/03 04:42:03;;;;;;;1.30;1.17;;;19.40;44.90;;;;;;4998538;28;20215;-69
2024/01/03 04:44:28;;;;;;;1.87;0.83;;;19.40;44.90;;;;;;4992289;28;20226;-69
2024/01/03 04:46:54;;;;;;;1.07;0.97;;;19.40;45.00;;;;;;4995209;28;20898;-69
2024/01/03 04:49:19;;;;;;;1.57;1.47;;;19.40;44.80;;;;;;4981797;28;20226;-67
2024/01/03 04:51:45;;;;;;;1.10;1.00;;;19.40;44.80;;;;;;4981859;28;20247;-68
2024/01/03 04:54:10;;;;;;;1.37;1.27;;;19.40;44.80;;;;;;4990559;28;20694;-68
2024/01/03 04:56:36;;;;;;;0.70;0.70;;;19.40;45.50;;;;;;4996227;28;20962;-70
2024/01/03 04:59:03;;;;;;;1.10;1.00;;;19.40;44.70;;;;;;4978286;28;20694;-68
2024/01/03 05:01:31;;;;;;;1.00;0.90;;;19.40;44.70;;;;;;4978624;28;20227;-68
2024/01/03 05:03:56;;;;;;;0.90;0.80;;;19.40;44.70;;;;;;4976566;28;20474;-71
2024/01/03 05:06:22;;;;;;;1.10;0.90;;;19.40;44.60;;;;;;4968112;28;20442;-68
2024/01/03 05:08:48;;;;;;;4.23;1.00;;;19.40;44.60;;;;;;4976858;28;20277;-69
2024/01/03 05:11:14;;;;;;;1.87;1.07;;;19.40;44.60;;;;;;4998904;28;20223;-68
2024/01/03 05:13:39;;;;;;;1.00;0.90;;;19.40;44.60;;;;;;4979706;28;20476;-70
2024/01/03 05:16:05;;;;;;;0.90;0.80;;;19.40;44.50;;;;;;4996509;28;20261;-71
2024/01/03 05:18:31;;;;;;;0.90;0.80;;;19.40;44.60;;;;;;4988875;28;20221;-67
2024/01/03 05:20:56;;;;;;;0.80;0.80;;;19.40;44.50;;;;;;4994300;28;20999;-69
2024/01/03 05:23:22;;;;;;;1.00;0.80;;;19.40;44.50;;;;;;4999323;28;20220;-68
2024/01/03 05:25:47;;;;;;;1.37;0.90;;;19.40;44.50;;;;;;4990778;28;20217;-71
2024/01/03 05:28:13;;;;;;;1.73;0.90;;;19.40;44.50;;;;;;4981557;28;20216;-68
2024/01/03 05:30:40;;;;;;;1.13;1.03;;;19.40;44.50;;;;;;4993198;28;20227;-69
2024/01/03 05:33:06;;;;;;;1.27;0.73;;;19.40;44.40;;;;;;4987606;28;21210;-68
2024/01/03 05:35:31;;;;;;;0.87;0.80;;;19.40;44.30;;;;;;4988836;28;20479;-68
2024/01/03 05:37:57;;;;;;;0.80;0.67;;;19.40;44.40;;;;;;4987125;28;20799;-71
2024/01/03 05:40:22;;;;;;;1.03;0.87;;;19.40;44.30;;;;;;4994316;28;20258;-68
2024/01/03 05:42:49;;;;;;;0.90;0.87;;;19.50;44.30;;;;;;4995613;28;21662;-69
2024/01/03 05:45:15;;;;;;;0.90;0.80;;;19.40;44.40;;;;;;4993939;28;20215;-67
2024/01/03 05:47:40;;;;;;;1.00;0.83;;;19.40;44.30;;;;;;4991647;28;20478;-68
2024/01/03 05:50:08;;;;;;;1.00;0.80;;;19.50;44.30;;;;;;4985709;28;20752;-67
2024/01/03 05:52:35;;;;;;;0.90;0.70;;;19.50;44.30;;;;;;4986648;28;20224;-74
2024/01/03 05:55:01;;;;;;;1.00;0.80;;;19.50;44.20;;;;;;4996117;28;20782;-73
2024/01/03 05:57:26;;;;;;;1.07;0.80;;;19.50;44.20;;;;;;4996544;28;20467;-73
2024/01/03 05:59:52;;;;;;;0.80;0.70;;;19.50;45.10;;;;;;4997438;28;20590;-73
2024/01/03 06:02:17;;;;;;;0.70;0.70;;;19.50;44.20;;;;;;4992091;28;20281;-70
2024/01/03 06:04:44;;;;;;;1.30;0.80;;;19.50;44.20;;;;;;4971903;28;20311;-67
2024/01/03 06:07:10;;;;;;;0.83;0.73;;;19.50;44.20;;;;;;4991795;28;20266;-68
2024/01/03 06:09:36;;;;;;;0.87;0.80;;;19.50;44.20;;;;;;4993366;28;20447;-69
2024/01/03 06:12:02;;;;;;;1.40;0.93;;;19.50;44.20;;;;;;4991392;28;20231;-67
2024/01/03 06:14:27;;;;;;;1.00;0.70;;;19.50;44.20;;;;;;4996934;28;20469;-67
2024/01/03 06:16:53;;;;;;;0.93;0.80;;;19.50;44.20;;;;;;4987370;28;20690;-68
2024/01/03 06:19:18;;;;;;;0.77;0.70;;;19.50;44.20;;;;;;4997020;28;20601;-68
2024/01/03 06:21:44;;;;;;;1.23;0.80;;;19.50;44.20;;;;;;4992385;28;20567;-68
2024/01/03 06:24:09;;;;;;;0.80;0.70;;;19.50;44.30;;;;;;4987615;28;20294;-70
2024/01/03 06:26:35;;;;;;;1.27;0.97;;;19.50;44.30;;;;;;4992353;28;20742;-71
2024/01/03 06:29:01;;;;;;;0.93;0.80;;;19.50;44.30;;;;;;4982359;28;20228;-69
2024/01/03 06:31:26;;;;;;;1.03;0.93;;;19.50;44.20;;;;;;4996195;28;20228;-73
2024/01/03 06:33:52;;;;;;;0.90;0.70;;;19.50;44.20;;;;;;4992744;28;20844;-70
2024/01/03 06:36:17;;;;;;;0.93;0.70;;;19.50;44.20;;;;;;4971888;28;20323;-71
2024/01/03 06:38:43;;;;;;;0.80;0.60;;;19.50;44.20;;;;;;4991024;28;20216;-68
2024/01/03 06:41:09;;;;;;;1.00;0.70;;;19.50;44.20;;;;;;4984240;28;20221;-68
2024/01/03 06:43:34;;;;;;;1.00;0.90;;;19.50;44.20;;;;;;4989508;28;21306;-68
2024/01/03 06:46:00;;;;;;;1.40;1.30;;;19.50;44.20;;;;;;4985872;28;20497;-70
2024/01/03 06:48:26;;;;;;;1.20;1.10;;;19.50;44.20;;;;;;4991506;28;20211;-70
2024/01/03 06:50:51;;;;;;;0.80;0.70;;;19.50;44.20;;;;;;4992914;28;20513;-68
2024/01/03 06:53:17;;;;;;;0.83;0.73;;;19.50;44.20;;;;;;4990203;28;20231;-68
2024/01/03 06:55:42;;;;;;;0.70;0.60;;;19.50;44.20;;;;;;4992857;28;20250;-69
2024/01/03 06:58:08;;;;;;;1.00;0.70;;;19.50;44.20;;;;;;4993023;28;20279;-68
2024/01/03 07:00:33;;;;;;;0.80;0.70;;;19.50;44.20;;;;;;4979669;28;20247;-69
2024/01/03 07:03:00;;;;;;;0.90;0.73;;;19.50;44.20;;;;;;4991194;28;20281;-68
2024/01/03 07:05:25;;;;;;;1.30;0.90;;;19.50;44.20;;;;;;4993469;28;20708;-70
2024/01/03 07:07:51;;;;;;;1.00;0.80;;;19.50;44.20;;;;;;4987037;28;20434;-70
2024/01/03 07:10:16;;;;;;;1.40;0.83;;;19.50;44.30;;;;;;4991589;28;20212;-69
2024/01/03 07:12:42;;;;;;;0.90;0.70;;;19.50;44.20;;;;;;4974044;28;20559;-69
2024/01/03 07:15:09;;;;;;;1.10;0.83;;;19.50;44.20;;;;;;4987115;28;20302;-68
2024/01/03 07:17:34;;;;;;;1.00;0.90;;;19.50;44.20;;;;;;4996656;28;20663;-69
2024/01/03 07:20:00;;;;;;;0.70;0.60;;;19.50;44.20;;;;;;4985400;28;20538;-70
2024/01/03 07:22:25;;;;;;;2.00;0.80;;;19.50;44.20;;;;;;4981868;28;20276;-69
2024/01/03 07:24:51;;;;;;;0.90;0.60;;;19.50;44.20;;;;;;4978853;28;20231;-72
2024/01/03 07:27:16;;;;;;;0.90;0.80;;;19.50;44.20;;;;;;4980874;28;20231;-70
2024/01/03 07:29:42;;;;;;;1.00;0.90;;;19.50;44.20;;;;;;4983524;28;20750;-69
2024/01/03 07:32:08;;;;;;;0.90;0.73;;;19.50;44.20;;;;;;4986755;28;20695;-74
2024/01/03 07:34:33;;;;;;;2.40;0.70;;;19.50;44.20;;;;;;4987367;28;20223;-72
2024/01/03 07:36:59;;;;;;;2.70;1.20;;;19.50;44.20;;;;;;4976580;28;20239;-74
2024/01/03 07:39:25;;;;;;;1.10;1.00;;;19.50;44.20;;;;;;4983647;28;20231;-71
2024/01/03 07:41:51;;;;;;;0.80;0.70;;;19.50;44.20;;;;;;4990824;28;20235;-70
2024/01/03 07:44:17;;;;;;;1.27;0.97;;;19.50;44.20;;;;;;4986589;28;20507;-70
2024/01/03 07:46:42;;;;;;;0.90;0.80;;;19.50;44.20;;;;;;4993556;28;20310;-71
2024/01/03 07:49:08;;;;;;;1.23;0.90;;;19.50;44.20;;;;;;4979330;28;20286;-71
2024/01/03 07:51:38;;;;;;;0.90;0.80;;;19.50;44.20;;;;;;4973673;28;20235;-73
2024/01/03 07:54:07;;;;;;;1.17;0.80;;;19.50;44.20;;;;;;4986055;28;20687;-73
2024/01/03 07:56:34;;;;;;;0.83;0.77;;;19.50;44.20;;;;;;4988236;28;21313;-71
2024/01/03 07:58:59;;;;;;;1.17;0.80;;;19.50;45.00;;;;;;4977905;28;20483;-69
2024/01/03 08:01:25;;;;;;;3.63;0.93;;;19.50;44.20;;;;;;4987957;28;20444;-71
2024/01/03 08:03:50;;;;;;;0.90;0.70;;;19.50;44.20;;;;;;4979118;28;20251;-73
2024/01/03 08:06:23;;;;;;;2.00;0.80;;;19.50;44.30;;;;;;4975432;28;20231;-70
2024/01/03 08:08:48;;;;;;;1.10;0.80;;;19.50;44.20;;;;;;4986895;28;20730;-72
2024/01/03 08:11:14;;;;;;;1.13;0.90;;;19.50;44.20;;;;;;4975783;28;20523;-69
2024/01/03 08:13:39;;;;;;;1.67;0.90;;;19.50;44.20;;;;;;4979651;28;20236;-72
2024/01/03 08:16:08;;;;;;;1.20;1.00;;;19.50;44.20;;;;;;4990225;28;20694;-71
2024/01/03 08:18:33;;;;;;;0.90;0.80;;;19.50;44.20;;;;;;4991419;28;20212;-70
2024/01/03 08:20:59;;;;;;;0.90;0.80;;;19.50;44.20;;;;;;4987416;28;21590;-70
2024/01/03 08:23:24;;;;;;;1.20;1.07;;;19.50;44.20;;;;;;4996036;28;20227;-69
2024/01/03 08:25:50;;;;;;;4.40;0.83;;;19.50;44.20;;;;;;4964813;28;20653;-69
2024/01/03 08:28:15;;;;;;;0.90;0.80;;;19.50;44.20;;;;;;4996964;28;20613;-72
2024/01/03 08:30:41;;;;;;;2.30;0.90;;;19.50;44.20;;;;;;5001186;28;20223;-68
2024/01/03 08:33:06;;;;;;;1.03;0.70;;;19.50;44.20;;;;;;4997989;28;20219;-68
2024/01/03 08:35:32;;;;;;;1.83;0.80;;;19.50;44.20;;;;;;4998387;28;20235;-68
2024/01/03 08:37:57;;;;;;;0.90;0.80;;;19.50;44.20;;;;;;4986539;28;20669;-71
2024/01/03 08:40:24;;;;;;;1.00;0.80;;;19.50;44.20;;;;;;4982574;28;20223;-72
2024/01/03 08:42:50;;;;;;;0.90;0.70;;;19.50;44.20;;;;;;4984978;28;20306;-71
2024/01/03 08:45:15;;;;;;;1.63;1.03;;;19.50;44.20;;;;;;4990362;28;20470;-70
2024/01/03 08:47:41;;;;;;;1.20;0.90;;;19.50;44.20;;;;;;4989418;28;20315;-71
2024/01/03 08:50:07;;;;;;;1.00;0.80;;;19.50;44.20;;;;;;4983519;28;20223;-69
2024/01/03 08:52:32;;;;;;;1.57;0.80;;;19.50;44.20;;;;;;4995460;28;20223;-68
2024/01/03 08:54:59;;;;;;;0.93;0.83;;;19.50;44.20;;;;;;4994440;28;20215;-68
2024/01/03 08:57:25;;;;;;;0.90;0.80;;;19.50;44.20;;;;;;4993944;28;20278;-68
2024/01/03 08:59:50;;;;;;;0.93;0.83;;;19.50;44.20;;;;;;4982769;28;20463;-70
2024/01/03 09:02:16;;;;;;;0.90;0.73;;;19.50;44.20;;;;;;4996618;28;20258;-68
2024/01/03 09:04:41;;;;;;;0.83;0.80;;;19.50;44.20;;;;;;4994589;28;20228;-68
2024/01/03 09:07:07;;;;;;;0.90;0.70;;;19.50;44.20;;;;;;4994891;28;20713;-69
2024/01/03 09:09:32;;;;;;;1.00;0.80;;;19.50;44.20;;;;;;4992209;28;20223;-67
2024/01/03 09:11:58;;;;;;;0.80;0.70;;;19.50;44.20;;;;;;4994242;28;20234;-70
2024/01/03 09:14:23;;;;;;;1.10;0.90;;;19.50;44.30;;;;;;4989002;28;20227;-69
2024/01/03 09:16:50;;;;;;;1.10;0.80;;;19.50;44.20;;;;;;4988267;28;20250;-71
2024/01/03 09:19:16;;;;;;;0.90;0.80;;;19.50;44.20;;;;;;4990666;28;20215;-69
2024/01/03 09:21:45;;;;;;;2.50;0.90;;;19.50;44.30;;;;;;4980771;28;20435;-72
2024/01/03 09:24:11;;;;;;;2.83;1.17;;;19.50;44.30;;;;;;4989583;28;21228;-72
2024/01/03 09:26:37;;;;;;;0.90;0.83;;;19.50;44.30;;;;;;4995062;28;20432;-75
2024/01/03 09:29:04;;;;;;;1.40;0.90;;;19.50;44.50;;;;;;4977063;28;20223;-79
2024/01/03 09:31:31;;;;;;;1.07;0.73;;;19.50;44.40;;;;;;4977968;28;20224;-79
2024/01/03 09:33:57;;;;;;;1.00;0.80;;;19.50;44.50;;;;;;4995211;28;20881;-80
2024/01/03 09:36:22;;;;;;;1.47;0.80;;;19.50;44.50;;;;;;4989988;28;21306;-81
2024/01/03 09:38:48;;;;;;;1.73;0.80;;;19.50;44.60;;;;;;4971437;28;20317;-80
2024/01/03 09:41:15;;;;;;;0.70;0.60;;;19.50;44.50;;;;;;4993218;28;20305;-81
2024/01/03 09:43:45;;;;;;;4.20;0.90;;;19.50;44.60;;;;;;4984692;28;20420;-80
2024/01/03 09:46:11;;;;;;;1.20;0.80;;;19.50;44.60;;;;;;4983926;28;20968;-77
2024/01/03 09:48:41;;;;;;;1.50;0.80;;;19.50;44.60;;;;;;4992706;28;20468;-80
2024/01/03 09:51:10;;;;;;;1.00;0.80;;;19.50;44.60;;;;;;4994614;28;20471;-79
2024/01/03 09:53:37;;;;;;;1.20;0.90;;;19.50;44.60;;;;;;4982474;28;20451;-76
2024/01/03 09:56:03;;;;;;;1.00;0.80;;;19.50;44.60;;;;;;4988362;28;20547;-80
2024/01/03 09:58:28;;;;;;;0.90;0.80;;;19.50;44.60;;;;;;4959639;28;20441;-81
2024/01/03 10:00:54;;;;;;;1.10;0.80;;;19.50;44.70;;;;;;4981869;28;20289;-80
2024/01/03 10:03:20;;;;;;;1.00;0.70;;;19.50;44.70;;;;;;4997574;28;20298;-79
2024/01/03 10:05:46;;;;;;;1.80;0.70;;;19.50;44.60;;;;;;4983734;28;20495;-80
2024/01/03 10:08:16;;;;;;;0.90;0.77;;;19.50;44.60;;;;;;4996161;28;20503;-81
2024/01/03 10:10:45;;;;;;;1.07;0.70;;;19.50;44.60;;;;;;4979382;28;20219;-75
2024/01/03 10:13:16;;;;;;;1.00;0.90;;;19.50;44.60;;;;;;5008118;28;20931;-77
2024/01/03 10:15:43;;;;;;;0.87;0.73;;;19.50;44.60;;;;;;4974262;28;20423;-77
2024/01/03 10:18:10;;;;;;;0.83;0.73;;;19.50;44.60;;;;;;4994188;28;21893;-79
2024/01/03 10:20:35;;;;;;;1.13;1.00;;;19.50;44.60;;;;;;4972663;28;20468;-76
2024/01/03 10:23:09;;;;;;;0.90;0.73;;;19.50;44.70;;;;;;4985871;28;20462;-78
2024/01/03 10:25:36;;;;;;;1.83;0.80;;;19.50;44.70;;;;;;4976240;28;20227;-78
2024/01/03 10:28:04;;;;;;;1.10;0.80;;;19.50;44.60;;;;;;4990149;28;20447;-78
2024/01/03 10:30:30;;;;;;;1.20;0.80;;;19.50;44.60;;;;;;4992266;28;20431;-76
2024/01/03 10:33:22;;;;;;;2.40;1.00;;;19.50;44.70;;;;;;4981850;28;20450;-71
2024/01/03 10:35:47;;;;;;;1.10;0.83;;;19.50;44.60;;;;;;4988889;28;20454;-74
2024/01/03 10:38:15;;;;;;;1.30;0.80;;;19.50;44.60;;;;;;4985715;28;20420;-70
2024/01/03 10:40:41;;;;;;;0.97;0.80;;;19.50;44.60;;;;;;4995076;28;20319;-70
2024/01/03 10:43:10;;;;;;;1.13;0.83;;;19.50;44.60;;;;;;4994520;28;20540;-70
2024/01/03 10:45:36;;;;;;;0.80;0.70;;;19.50;44.60;;;;;;4993016;28;20243;-71
2024/01/03 10:48:03;;;;;;;2.27;1.23;;;19.50;44.30;;;;;;4995949;28;20531;-70
2024/01/03 10:50:28;;;;;;;0.80;0.63;;;19.50;44.30;;;;;;4993666;28;20215;-69
2024/01/03 10:52:57;;;;;;;0.80;0.70;;;19.50;44.20;;;;;;4978434;28;20461;-70
2024/01/03 10:55:35;;;;;;;0.87;0.80;;;19.50;44.20;;;;;;4972509;28;20688;-69
2024/01/03 10:58:07;;;;;;;3.00;0.97;;;19.50;44.20;;;;;;4990840;28;20428;-69
2024/01/03 11:01:02;;;;;;;1.07;0.90;;;19.60;44.30;;;;;;4987011;28;20457;-73
2024/01/03 11:03:37;;;;;;;0.90;0.60;;;19.60;44.30;;;;;;4988195;28;20454;-73
2024/01/03 11:06:29;;;;;;;1.10;0.70;;;19.60;44.30;;;;;;4989581;28;20463;-74
2024/01/03 11:09:02;;;;;;;1.20;0.90;;;19.60;44.30;;;;;;4989869;28;20468;-70
2024/01/03 11:11:35;;;;;;;1.23;1.00;;;19.60;44.30;;;;;;4983175;28;20998;-71
2024/01/03 11:14:02;;;;;;;3.03;0.83;;;19.60;44.30;;;;;;4977339;28;20565;-73
2024/01/03 11:16:35;;;;;;;1.00;0.73;;;19.60;44.30;;;;;;4971961;28;21037;-72
2024/01/03 11:19:01;;;;;;;1.67;0.70;;;19.60;44.30;;;;;;4979607;28;20909;-70
2024/01/03 11:21:27;;;;;;;1.17;0.80;;;19.60;44.30;;;;;;4992845;28;20482;-69
2024/01/03 11:23:57;;;;;;;0.90;0.60;;;19.60;44.30;;;;;;4985988;28;20234;-71
2024/01/03 11:26:53;;;;;;;0.80;0.70;;;19.60;44.30;;;;;;4991917;28;20238;-69
2024/01/03 11:29:55;;;;;;;1.40;0.67;;;19.60;44.30;;;;;;4983602;28;20572;-70
2024/01/03 11:32:29;;;;;;;0.90;0.70;;;19.60;44.30;;;;;;4983078;28;20867;-70
2024/01/03 11:34:56;;;;;;;0.70;0.70;;;19.60;44.40;;;;;;4978990;28;20867;-72
2024/01/03 11:37:22;;;;;;;1.00;0.90;;;19.60;44.30;;;;;;4985851;28;20477;-70
2024/01/03 11:39:50;;;;;;;3.10;0.80;;;19.60;44.30;;;;;;4986404;28;21396;-70
2024/01/03 11:42:20;;;;;;;1.60;0.90;;;19.60;44.30;;;;;;4994612;28;20552;-75
2024/01/03 11:44:46;;;;;;;1.57;0.90;;;19.60;44.40;;;;;;4976140;28;20423;-75
2024/01/03 11:47:13;;;;;;;3.67;1.10;;;19.60;44.30;;;;;;4983731;28;20794;-76
2024/01/03 11:49:39;;;;;;;1.43;0.87;;;19.60;44.30;;;;;;4987405;28;25395;-75
2024/01/03 11:52:05;;;;;;;1.20;0.70;;;19.60;44.40;;;;;;4990211;28;20465;-74
2024/01/03 11:54:32;;;;;;;1.10;0.90;;;19.60;44.30;;;;;;4991556;28;20476;-76
2024/01/03 11:56:58;;;;;;;0.90;0.80;;;19.60;44.40;;;;;;4978833;28;20581;-76
2024/01/03 11:59:24;;;;;;;0.87;0.70;;;19.60;44.30;;;;;;4988135;28;20432;-75
2024/01/03 12:01:57;;;;;;;0.90;0.80;;;19.60;44.40;;;;;;4984185;28;20501;-75
2024/01/03 12:04:23;;;;;;;0.77;0.70;;;19.60;44.30;;;;;;4995037;28;20462;-76
2024/01/03 12:06:49;;;;;;;0.80;0.70;;;19.60;44.30;;;;;;4993510;28;20977;-75
2024/01/03 12:09:16;;;;;;;1.37;0.83;;;19.60;44.30;;;;;;4991869;28;20218;-76
2024/01/03 12:11:41;;;;;;;1.30;0.77;;;19.60;44.30;;;;;;4990504;28;20239;-76
2024/01/03 12:14:07;;;;;;;0.80;0.80;;;19.60;45.10;;;;;;4989429;28;20479;-76
2024/01/03 12:16:44;;;;;;;1.07;0.60;;;19.60;44.40;;;;;;4991912;28;21349;-76
2024/01/03 12:19:09;;;;;;;1.23;0.80;;;19.60;44.30;;;;;;4983687;28;21084;-75
2024/01/03 12:21:35;;;;;;;0.90;0.77;;;19.60;44.30;;;;;;4988182;28;20481;-73
2024/01/03 12:24:03;;;;;;;2.10;0.87;;;19.60;44.30;;;;;;4988688;28;20721;-73
2024/01/03 12:26:29;;;;;;;0.97;0.87;;;19.60;44.30;;;;;;4992503;28;20228;-73
2024/01/03 12:29:02;;;;;;;1.43;0.73;;;19.60;44.30;;;;;;4983194;28;20437;-71
2024/01/03 12:31:27;;;;;;;0.80;0.80;;;19.60;44.40;;;;;;4989771;28;20444;-71
2024/01/03 12:34:03;;;;;;;1.10;1.00;;;19.60;44.40;;;;;;4982867;28;20481;-71
2024/01/03 12:36:28;;;;;;;1.00;0.83;;;19.60;44.30;;;;;;4979669;28;20235;-74
2024/01/03 12:39:00;;;;;;;1.57;0.90;;;19.60;44.40;;;;;;4988292;28;20457;-69
2024/01/03 12:41:26;;;;;;;2.37;1.20;;;19.60;44.30;;;;;;4989667;28;20711;-69
2024/01/03 12:43:51;;;;;;;1.13;0.90;;;19.60;44.40;;;;;;4973520;28;20429;-72
2024/01/03 12:46:17;;;;;;;1.50;0.90;;;19.60;44.40;;;;;;4990290;28;20671;-71